Time;durP1;ratioP1;P1;durP2;ratioP2;P2;SDS_P1;SDS_P2;PMS_P1;PMS_P2;Temp;Humidity;BMP_temperature;BMP_pressure;BME280_temperature;BME280_humidity;BME280_pressure;Samples;Min_cycle;Max_cycle;Signal;HPM_P1;HPM_P2
2023/03/09 00:00:51;;;;;;;;;;;;;;;-4.08;73.36;99585.23;107394;1256;60148;-89
2023/03/09 00:03:24;;;;;;;;;;;;;;;-4.12;73.35;99587.10;107554;1256;71438;-88
2023/03/09 00:05:58;;;;;;;;;;;;;;;-4.12;73.34;99585.38;107566;1257;123219;-89
2023/03/09 00:08:32;;;;;;;;;;;;;;;-4.13;73.24;99583.40;107536;1256;71688;-89
2023/03/09 00:11:06;;;;;;;;;;;;;;;-4.16;73.31;99582.36;107239;1256;123399;-88
2023/03/09 00:13:33;;;;;;;;;;;;;;;-4.19;73.47;99578.90;107410;1255;59252;-88
2023/03/09 00:16:07;;;;;;;;;;;;;;;-4.22;73.30;99578.91;107640;1256;71780;-88
2023/03/09 00:18:35;;;;;;;;;;;;;;;-4.24;73.31;99576.23;107820;1256;65740;-89
2023/03/09 00:21:03;;;;;;;;;;;;;;;-4.26;73.47;99575.23;107913;1256;71576;-88
2023/03/09 00:23:32;;;;;;;;;;;;;;;-4.29;73.44;99572.27;107837;1256;124154;-88
2023/03/09 00:26:04;;;;;;;;;;;;;;;-4.32;73.40;99576.90;107822;1262;60136;-88
2023/03/09 00:28:31;;;;;;;;;;;;;;;-4.35;73.40;99575.86;108004;1255;124007;-89
2023/03/09 00:31:04;;;;;;;;;;;;;;;-4.36;73.33;99573.01;108148;1256;67048;-89
2023/03/09 00:33:32;;;;;;;;;;;;;;;-4.39;73.51;99576.92;108135;1256;72675;-89
2023/03/09 00:35:59;;;;;;;;;;;;;;;-4.41;73.40;99573.54;108029;1255;123755;-89
2023/03/09 00:38:26;;;;;;;;;;;;;;;-4.44;73.47;99572.86;108051;1255;60138;-89
2023/03/09 00:40:54;;;;;;;;;;;;;;;-4.45;73.50;99572.45;107772;1256;123810;-89
2023/03/09 00:43:23;;;;;;;;;;;;;;;-4.46;73.48;99569.46;107611;1256;65860;-88
2023/03/09 00:45:52;;;;;;;;;;;;;;;-4.49;73.57;99572.05;107841;1256;71135;-88
2023/03/09 00:48:25;;;;;;;;;;;;;;;-4.52;73.43;99567.56;107780;1255;123541;-88
2023/03/09 00:51:20;;;;;;;;;;;;;;;-4.54;73.35;99570.83;107795;1259;60170;-88
2023/03/09 00:53:55;;;;;;;;;;;;;;;-4.57;73.46;99566.15;107718;1256;122556;-90
2023/03/09 00:56:29;;;;;;;;;;;;;;;-4.60;73.39;99564.59;107751;1256;67150;-88
2023/03/09 00:59:03;;;;;;;;;;;;;;;-4.64;73.36;99564.04;107507;1255;123573;-88
2023/03/09 01:01:36;;;;;;;;;;;;;;;-4.67;73.28;99565.36;107949;1255;59321;-88
2023/03/09 01:04:06;;;;;;;;;;;;;;;-4.71;73.17;99565.64;107796;1256;59903;-88
2023/03/09 01:06:33;;;;;;;;;;;;;;;-4.75;73.13;99564.50;107577;1256;71958;-88
2023/03/09 01:09:01;;;;;;;;;;;;;;;-4.78;73.25;99567.17;107639;1256;65666;-88
2023/03/09 01:11:27;;;;;;;;;;;;;;;-4.82;73.21;99568.14;107410;1255;123593;-88
2023/03/09 01:13:57;;;;;;;;;;;;;;;-4.86;73.09;99570.91;107805;1256;59548;-88
2023/03/09 01:16:30;;;;;;;;;;;;;;;-4.90;73.09;99574.79;107437;1255;123873;-88
2023/03/09 01:18:58;;;;;;;;;;;;;;;-4.95;72.88;99569.69;107481;1258;72810;-88
2023/03/09 01:21:32;;;;;;;;;;;;;;;-4.97;73.25;99567.98;107703;1255;66187;-88
2023/03/09 01:23:59;;;;;;;;;;;;;;;-5.00;73.32;99567.80;107775;1256;123485;-88
2023/03/09 01:26:27;;;;;;;;;;;;;;;-5.02;73.27;99567.82;107535;1258;59068;-88
2023/03/09 01:29:01;;;;;;;;;;;;;;;-5.05;73.20;99567.45;107498;1256;125072;-88
2023/03/09 01:31:29;;;;;;;;;;;;;;;-5.07;73.11;99566.46;107777;1256;70766;-88
2023/03/09 01:33:55;;;;;;;;;;;;;;;-5.09;73.23;99567.39;107843;1256;66033;-88
2023/03/09 01:36:22;;;;;;;;;;;;;;;-5.08;73.33;99571.86;108000;1255;124315;-88
2023/03/09 01:38:50;;;;;;;;;;;;;;;-5.07;73.23;99570.73;107878;1255;59173;-89
2023/03/09 01:41:17;;;;;;;;;;;;;;;-5.04;73.45;99571.95;107531;1256;125652;-81
2023/03/09 01:43:45;;;;;;;;;;;;;;;-5.02;73.43;99573.46;108966;1256;72378;-81
2023/03/09 01:46:30;;;;;;;;;;;;;;;-4.99;73.44;99573.13;107974;1256;124752;-88
2023/03/09 01:49:21;;;;;;;;;;;;;;;-4.97;73.34;99569.20;107373;1256;71446;-91
2023/03/09 01:52:07;;;;;;;;;;;;;;;-4.94;73.31;99572.30;107489;1256;60398;-91
2023/03/09 01:54:58;;;;;;;;;;;;;;;-4.93;73.25;99567.61;107635;1255;59955;-90
2023/03/09 01:57:44;;;;;;;;;;;;;;;-4.90;73.23;99572.40;108098;1256;73877;-89
2023/03/09 02:00:13;;;;;;;;;;;;;;;-4.87;73.39;99566.40;107451;1256;124345;-90
2023/03/09 02:02:56;;;;;;;;;;;;;;;-4.85;73.31;99567.41;107426;1256;71468;-89
2023/03/09 02:05:44;;;;;;;;;;;;;;;-4.80;73.23;99564.98;107109;1256;124249;-90
2023/03/09 02:08:11;;;;;;;;;;;;;;;-4.78;73.27;99561.70;107340;1256;59708;-81
2023/03/09 02:10:40;;;;;;;;;;;;;;;-4.77;73.18;99563.35;107282;1256;124593;-82
2023/03/09 02:13:07;;;;;;;;;;;;;;;-4.77;73.27;99564.21;108220;1256;66806;-82
2023/03/09 02:15:35;;;;;;;;;;;;;;;-4.76;72.96;99565.13;108062;1259;71398;-82
2023/03/09 02:18:02;;;;;;;;;;;;;;;-4.75;72.98;99561.08;107652;1256;124298;-82
2023/03/09 02:20:51;;;;;;;;;;;;;;;-4.75;72.92;99561.58;107504;1257;60202;-89
2023/03/09 02:23:39;;;;;;;;;;;;;;;-4.75;72.92;99563.28;107470;1256;124140;-89
2023/03/09 02:26:14;;;;;;;;;;;;;;;-4.75;72.90;99563.48;107655;1255;65565;-90
2023/03/09 02:28:47;;;;;;;;;;;;;;;-4.76;72.81;99564.95;107840;1255;124465;-90
2023/03/09 02:31:20;;;;;;;;;;;;;;;-4.76;72.78;99562.00;107562;1255;60561;-88
2023/03/09 02:33:47;;;;;;;;;;;;;;;-4.77;72.85;99562.10;107757;1256;60329;-81
2023/03/09 02:36:23;;;;;;;;;;;;;;;-4.79;72.65;99561.69;107784;1255;124424;-90
2023/03/09 02:38:50;;;;;;;;;;;;;;;-4.81;72.69;99558.98;107506;1256;67066;-82
2023/03/09 02:41:18;;;;;;;;;;;;;;;-4.80;72.62;99557.16;107503;1256;124609;-90
2023/03/09 02:43:52;;;;;;;;;;;;;;;-4.82;72.72;99556.65;107441;1256;60358;-82
2023/03/09 02:46:19;;;;;;;;;;;;;;;-4.84;72.64;99558.05;107410;1255;124812;-90
2023/03/09 02:48:46;;;;;;;;;;;;;;;-4.86;72.66;99558.98;107797;1256;73870;-82
2023/03/09 02:51:13;;;;;;;;;;;;;;;-4.86;72.88;99556.45;107615;1255;66954;-90
2023/03/09 02:53:40;;;;;;;;;;;;;;;-4.86;72.83;99560.00;107218;1256;123678;-81
2023/03/09 02:56:15;;;;;;;;;;;;;;;-4.85;72.77;99561.96;107804;1255;60486;-89
2023/03/09 02:58:43;;;;;;;;;;;;;;;-4.85;72.80;99564.50;107910;1255;124035;-90
2023/03/09 03:01:10;;;;;;;;;;;;;;;-4.85;72.90;99563.46;108092;1259;74461;-81
2023/03/09 03:03:38;;;;;;;;;;;;;;;-4.87;72.74;99565.09;107920;1255;66337;-81
2023/03/09 03:06:05;;;;;;;;;;;;;;;-4.88;72.73;99569.96;107367;1256;123801;-81
2023/03/09 03:08:32;;;;;;;;;;;;;;;-4.90;72.67;99570.52;107500;1255;59065;-81
2023/03/09 03:11:17;;;;;;;;;;;;;;;-4.94;72.53;99567.84;107691;1256;123786;-90
2023/03/09 03:13:44;;;;;;;;;;;;;;;-4.96;72.54;99571.96;107637;1255;73718;-90
2023/03/09 03:16:13;;;;;;;;;;;;;;;-4.99;72.56;99575.71;107624;1256;124093;-90
2023/03/09 03:18:46;;;;;;;;;;;;;;;-5.02;72.58;99579.63;107633;1256;72712;-91
2023/03/09 03:21:13;;;;;;;;;;;;;;;-5.04;72.61;99583.95;107427;1256;60757;-90
2023/03/09 03:23:41;;;;;;;;;;;;;;;-5.05;72.69;99583.03;107532;1256;123741;-89
2023/03/09 03:26:23;;;;;;;;;;;;;;;-5.05;72.81;99582.33;107621;1256;72297;-90
2023/03/09 03:28:54;;;;;;;;;;;;;;;-5.03;72.76;99587.44;107245;1255;124082;-91
2023/03/09 03:31:21;;;;;;;;;;;;;;;-5.01;73.05;99592.54;107431;1255;72825;-90
2023/03/09 03:33:49;;;;;;;;;;;;;;;-4.99;72.90;99599.54;107378;1256;60926;-90
2023/03/09 03:36:19;;;;;;;;;;;;;;;-4.97;72.99;99599.83;107487;1256;123610;-89
2023/03/09 03:38:46;;;;;;;;;;;;;;;-4.96;72.82;99603.68;107593;1256;73558;-90
2023/03/09 03:41:14;;;;;;;;;;;;;;;-4.95;72.84;99602.21;107488;1256;124923;-90
2023/03/09 03:43:41;;;;;;;;;;;;;;;-4.95;72.80;99603.22;107771;1256;71309;-89
2023/03/09 03:46:10;;;;;;;;;;;;;;;-4.96;72.71;99602.98;107918;1256;123832;-89
2023/03/09 03:48:37;;;;;;;;;;;;;;;-4.97;72.78;99601.52;108021;1256;60464;-90
2023/03/09 03:51:05;;;;;;;;;;;;;;;-4.98;72.74;99603.14;108002;1256;73737;-90
2023/03/09 03:53:32;;;;;;;;;;;;;;;-5.00;72.80;99602.55;108286;1256;123840;-90
2023/03/09 03:56:00;;;;;;;;;;;;;;;-5.00;72.70;99604.91;107832;1256;71506;-89
2023/03/09 03:58:27;;;;;;;;;;;;;;;-5.01;72.81;99605.35;107714;1256;124451;-81
2023/03/09 04:00:54;;;;;;;;;;;;;;;-5.02;72.76;99607.85;107825;1255;60464;-81
2023/03/09 04:03:21;;;;;;;;;;;;;;;-5.03;72.67;99606.75;108078;1257;74326;-82
2023/03/09 04:05:48;;;;;;;;;;;;;;;-5.05;72.65;99603.71;107857;1256;125519;-82
2023/03/09 04:08:15;;;;;;;;;;;;;;;-5.06;72.61;99602.98;107798;1261;71056;-82
2023/03/09 04:10:42;;;;;;;;;;;;;;;-5.07;72.77;99604.98;107855;1255;124563;-90
2023/03/09 04:13:10;;;;;;;;;;;;;;;-5.07;72.67;99606.32;108840;1255;58691;-90
2023/03/09 04:15:37;;;;;;;;;;;;;;;-5.08;72.70;99607.14;108927;1255;73896;-90
2023/03/09 04:18:11;;;;;;;;;;;;;;;-5.08;72.61;99606.41;107604;1256;123694;-90
2023/03/09 04:20:38;;;;;;;;;;;;;;;-5.07;72.70;99605.64;107356;1261;72695;-90
2023/03/09 04:23:05;;;;;;;;;;;;;;;-5.07;72.64;99604.97;107673;1255;124036;-90
2023/03/09 04:25:32;;;;;;;;;;;;;;;-5.07;72.85;99602.39;108483;1255;59753;-90
2023/03/09 04:28:08;;;;;;;;;;;;;;;-5.09;72.71;99605.34;108176;1255;72994;-89
2023/03/09 04:30:38;;;;;;;;;;;;;;;-5.11;72.80;99605.05;107498;1256;67097;-90
2023/03/09 04:33:05;;;;;;;;;;;;;;;-5.12;72.61;99606.71;107264;1255;72628;-89
2023/03/09 04:35:42;;;;;;;;;;;;;;;-5.13;72.86;99606.63;107142;1256;124459;-88
2023/03/09 04:38:09;;;;;;;;;;;;;;;-5.14;72.73;99606.90;106960;1259;61378;-87
2023/03/09 04:40:36;;;;;;;;;;;;;;;-5.15;72.88;99605.48;107018;1255;124981;-90
2023/03/09 04:43:03;;;;;;;;;;;;;;;-5.14;72.78;99609.61;107365;1256;64619;-90
2023/03/09 04:45:31;;;;;;;;;;;;;;;-5.13;72.97;99611.20;107155;1262;71693;-88
2023/03/09 04:48:05;;;;;;;;;;;;;;;-5.12;72.92;99610.27;107388;1256;124500;-89
2023/03/09 04:50:50;;;;;;;;;;;;;;;-5.11;72.91;99607.77;107422;1256;58804;-89
2023/03/09 04:53:23;;;;;;;;;;;;;;;-5.11;72.73;99599.92;107133;1255;124157;-90
2023/03/09 04:55:53;;;;;;;;;;;;;;;-5.10;72.82;99600.11;107261;1256;65800;-89
2023/03/09 04:58:21;;;;;;;;;;;;;;;-5.09;72.88;99600.01;107387;1256;124344;-85
2023/03/09 05:00:55;;;;;;;;;;;;;;;-5.08;72.78;99604.58;107421;1256;61538;-85
2023/03/09 05:03:22;;;;;;;;;;;;;;;-5.04;72.79;99604.96;107422;1255;59184;-88
2023/03/09 05:05:57;;;;;;;;;;;;;;;-5.03;72.83;99610.87;107399;1256;124187;-89
2023/03/09 05:08:27;;;;;;;;;;;;;;;-5.02;72.78;99610.58;107364;1256;65829;-89
2023/03/09 05:10:58;;;;;;;;;;;;;;;-5.02;72.66;99608.02;107371;1255;124326;-88
2023/03/09 05:13:33;;;;;;;;;;;;;;;-5.02;72.63;99610.45;107344;1257;60172;-88
2023/03/09 05:16:07;;;;;;;;;;;;;;;-5.01;72.58;99611.52;107345;1255;59240;-89
2023/03/09 05:18:40;;;;;;;;;;;;;;;-5.01;72.44;99611.20;107232;1255;75069;-87
2023/03/09 05:21:07;;;;;;;;;;;;;;;-5.00;72.48;99606.29;107034;1256;65821;-81
2023/03/09 05:23:35;;;;;;;;;;;;;;;-4.98;72.64;99607.98;107294;1255;124875;-82
2023/03/09 05:26:08;;;;;;;;;;;;;;;-4.96;72.45;99606.20;107368;1256;60566;-86
2023/03/09 05:28:35;;;;;;;;;;;;;;;-4.94;72.59;99607.06;107589;1259;124405;-81
2023/03/09 05:31:05;;;;;;;;;;;;;;;-4.88;72.64;99609.86;107465;1256;73503;-86
2023/03/09 05:33:33;;;;;;;;;;;;;;;-4.80;72.53;99611.55;107412;1259;65778;-87
2023/03/09 05:36:02;;;;;;;;;;;;;;;-4.74;72.46;99610.76;107272;1256;123812;-88
2023/03/09 05:38:30;;;;;;;;;;;;;;;-4.67;72.76;99613.09;107766;1256;58757;-87
2023/03/09 05:40:58;;;;;;;;;;;;;;;-4.61;72.61;99612.16;107926;1256;123433;-86
2023/03/09 05:43:25;;;;;;;;;;;;;;;-4.53;72.74;99613.35;107808;1256;74388;-89
2023/03/09 05:45:54;;;;;;;;;;;;;;;-4.43;72.91;99613.15;107936;1256;67245;-81
2023/03/09 05:48:21;;;;;;;;;;;;;;;-4.33;72.93;99612.63;107619;1256;123999;-81
2023/03/09 05:50:48;;;;;;;;;;;;;;;-4.24;72.81;99613.02;107866;1256;59669;-83
2023/03/09 05:53:16;;;;;;;;;;;;;;;-4.18;72.82;99610.50;107913;1256;123680;-80
2023/03/09 05:55:43;;;;;;;;;;;;;;;-4.09;72.96;99607.14;108259;1255;74356;-80
2023/03/09 05:58:10;;;;;;;;;;;;;;;-3.99;73.00;99613.97;107968;1256;124062;-80
2023/03/09 06:00:36;;;;;;;;;;;;;;;-3.88;72.93;99611.89;108938;1256;73156;-82
2023/03/09 06:03:05;;;;;;;;;;;;;;;-3.78;72.94;99612.55;108494;1255;58701;-81
2023/03/09 06:05:32;;;;;;;;;;;;;;;-3.65;72.88;99612.16;107805;1255;123788;-88
2023/03/09 06:08:00;;;;;;;;;;;;;;;-3.52;72.99;99614.68;107894;1257;72513;-86
2023/03/09 06:10:27;;;;;;;;;;;;;;;-3.38;72.92;99617.11;107645;1256;123884;-88
2023/03/09 06:12:54;;;;;;;;;;;;;;;-3.24;72.89;99613.51;107459;1256;72678;-88
2023/03/09 06:15:21;;;;;;;;;;;;;;;-3.09;72.80;99619.02;107695;1256;60571;-89
2023/03/09 06:17:56;;;;;;;;;;;;;;;-2.97;72.48;99620.42;107384;1255;124080;-87
2023/03/09 06:20:23;;;;;;;;;;;;;;;-2.88;72.47;99621.64;107585;1256;73887;-89
2023/03/09 06:22:51;;;;;;;;;;;;;;;-2.79;72.33;99624.95;107574;1256;124057;-87
2023/03/09 06:25:18;;;;;;;;;;;;;;;-2.69;72.28;99626.41;107799;1256;71502;-88
2023/03/09 06:27:45;;;;;;;;;;;;;;;-2.58;72.33;99624.64;108182;1256;60309;-88
2023/03/09 06:30:13;;;;;;;;;;;;;;;-2.41;72.42;99630.81;107810;1255;123713;-88
2023/03/09 06:32:46;;;;;;;;;;;;;;;-2.23;72.41;99633.70;108118;1256;73433;-88
2023/03/09 06:35:15;;;;;;;;;;;;;;;-2.06;72.29;99630.57;107815;1256;123934;-89
2023/03/09 06:37:44;;;;;;;;;;;;;;;-1.89;72.34;99635.11;107848;1259;73225;-88
2023/03/09 06:40:12;;;;;;;;;;;;;;;-1.71;72.28;99634.42;107480;1256;123681;-88
2023/03/09 06:42:40;;;;;;;;;;;;;;;-1.52;72.15;99639.77;107988;1255;59246;-88
2023/03/09 06:45:08;;;;;;;;;;;;;;;-1.34;72.25;99644.88;107762;1256;72034;-88
2023/03/09 06:47:37;;;;;;;;;;;;;;;-1.16;72.25;99647.75;107662;1256;123639;-89
2023/03/09 06:50:04;;;;;;;;;;;;;;;-0.98;72.07;99648.17;108006;1256;71599;-91
2023/03/09 06:52:32;;;;;;;;;;;;;;;-0.79;71.92;99652.96;107804;1256;123653;-88
2023/03/09 06:54:59;;;;;;;;;;;;;;;-0.62;71.82;99654.88;108112;1255;59785;-89
2023/03/09 06:57:27;;;;;;;;;;;;;;;-0.45;71.75;99657.84;108104;1256;73899;-89
2023/03/09 07:00:01;;;;;;;;;;;;;;;-0.33;71.35;99662.19;108096;1256;123712;-89
2023/03/09 07:02:28;;;;;;;;;;;;;;;-0.25;71.13;99664.55;107885;1256;73184;-89
2023/03/09 07:04:55;;;;;;;;;;;;;;;-0.15;71.02;99667.44;107771;1256;124370;-89
2023/03/09 07:07:23;;;;;;;;;;;;;;;-0.05;70.99;99668.98;107741;1255;59171;-89
2023/03/09 07:09:50;;;;;;;;;;;;;;;0.05;70.73;99669.29;107945;1256;74532;-88
2023/03/09 07:12:18;;;;;;;;;;;;;;;0.15;70.72;99670.30;108019;1256;123426;-89
2023/03/09 07:14:45;;;;;;;;;;;;;;;0.23;70.53;99669.66;108299;1256;70864;-88
2023/03/09 07:17:13;;;;;;;;;;;;;;;0.30;70.39;99674.48;108162;1255;123289;-89
2023/03/09 07:19:40;;;;;;;;;;;;;;;0.42;70.38;99670.54;107869;1255;60394;-88
2023/03/09 07:22:07;;;;;;;;;;;;;;;0.52;70.16;99668.96;107414;1255;72740;-89
2023/03/09 07:24:35;;;;;;;;;;;;;;;0.64;70.19;99670.22;107431;1256;68644;-89
2023/03/09 07:27:03;;;;;;;;;;;;;;;0.76;70.04;99671.67;107321;1256;71473;-89
2023/03/09 07:29:30;;;;;;;;;;;;;;;0.87;69.85;99670.77;107318;1255;123604;-89
2023/03/09 07:32:10;;;;;;;;;;;;;;;0.96;69.92;99669.83;107638;1257;60123;-89
2023/03/09 07:34:43;;;;;;;;;;;;;;;1.12;69.88;99673.96;107506;1256;123723;-90
2023/03/09 07:37:11;;;;;;;;;;;;;;;1.28;69.48;99680.08;107351;1256;66015;-90
2023/03/09 07:39:38;;;;;;;;;;;;;;;1.42;69.05;99683.09;107925;1256;70451;-89
2023/03/09 07:42:05;;;;;;;;;;;;;;;1.51;68.89;99687.64;107792;1262;123828;-89
2023/03/09 07:44:32;;;;;;;;;;;;;;;1.59;68.51;99692.13;107758;1256;59184;-89
2023/03/09 07:46:59;;;;;;;;;;;;;;;1.62;67.96;99691.91;107720;1256;123883;-89
2023/03/09 07:49:26;;;;;;;;;;;;;;;1.68;67.96;99700.66;107742;1257;65621;-89
2023/03/09 07:51:56;;;;;;;;;;;;;;;1.74;67.49;99700.91;108182;1257;72792;-89
2023/03/09 07:54:23;;;;;;;;;;;;;;;1.86;67.47;99701.77;107593;1256;123977;-89
2023/03/09 07:56:51;;;;;;;;;;;;;;;2.05;67.47;99705.36;107645;1256;59891;-80
2023/03/09 07:59:20;;;;;;;;;;;;;;;2.26;67.22;99707.60;107341;1257;124624;-80
2023/03/09 08:01:47;;;;;;;;;;;;;;;2.37;66.73;99709.60;107339;1257;64667;-80
2023/03/09 08:04:23;;;;;;;;;;;;;;;2.43;66.63;99711.94;107275;1261;124129;-80
2023/03/09 08:07:02;;;;;;;;;;;;;;;2.50;66.06;99712.76;107847;1262;60277;-80
2023/03/09 08:10:02;;;;;;;;;;;;;;;;;;;;;
2023/03/09 08:12:55;;;;;;;;;;;;;;;2.58;65.60;99709.77;107518;1256;75035;-80
2023/03/09 08:15:24;;;;;;;;;;;;;;;2.68;65.41;99717.09;107691;1257;65831;-80
2023/03/09 08:17:52;;;;;;;;;;;;;;;2.78;65.29;99720.27;107829;1257;124316;-79
2023/03/09 08:20:19;;;;;;;;;;;;;;;2.81;64.88;99722.28;107662;1255;59852;-79
2023/03/09 08:22:46;;;;;;;;;;;;;;;2.80;64.82;99726.04;107556;1257;124029;-80
2023/03/09 08:25:13;;;;;;;;;;;;;;;2.88;64.72;99723.95;107572;1256;72385;-80
2023/03/09 08:27:41;;;;;;;;;;;;;;;2.94;64.53;99723.16;107646;1257;65707;-80
2023/03/09 08:30:09;;;;;;;;;;;;;;;2.99;64.43;99720.91;107381;1256;123763;-80
2023/03/09 08:32:36;;;;;;;;;;;;;;;3.06;64.30;99725.15;107572;1256;60473;-80
2023/03/09 08:35:03;;;;;;;;;;;;;;;3.11;64.09;99718.23;107276;1262;123808;-79
2023/03/09 08:37:30;;;;;;;;;;;;;;;3.15;63.82;99718.04;107297;1256;72573;-80
2023/03/09 08:39:58;;;;;;;;;;;;;;;3.16;63.42;99720.31;107533;1257;67027;-79
2023/03/09 08:42:25;;;;;;;;;;;;;;;3.22;63.43;99721.94;107537;1257;123309;-80
2023/03/09 08:44:52;;;;;;;;;;;;;;;3.29;63.52;99725.18;107470;1257;60461;-79
2023/03/09 08:47:19;;;;;;;;;;;;;;;3.32;63.23;99727.88;107796;1255;123223;-80
2023/03/09 08:49:48;;;;;;;;;;;;;;;3.29;62.64;99731.75;107810;1256;72584;-80
2023/03/09 08:52:15;;;;;;;;;;;;;;;3.22;62.36;99731.15;107613;1256;65505;-79
2023/03/09 08:54:51;;;;;;;;;;;;;;;3.19;62.39;99734.32;107524;1256;123630;-90
2023/03/09 08:57:20;;;;;;;;;;;;;;;3.22;62.11;99736.87;107688;1256;60085;-80
2023/03/09 08:59:47;;;;;;;;;;;;;;;3.25;61.84;99742.02;108057;1256;124074;-80
2023/03/09 09:02:14;;;;;;;;;;;;;;;3.24;61.88;99747.70;108091;1256;73611;-89
2023/03/09 09:04:42;;;;;;;;;;;;;;;3.24;61.65;99749.94;107879;1256;124389;-80
2023/03/09 09:07:09;;;;;;;;;;;;;;;3.23;61.52;99756.84;107489;1255;72754;-80
2023/03/09 09:09:37;;;;;;;;;;;;;;;3.24;61.41;99758.59;107541;1262;60096;-79
2023/03/09 09:12:05;;;;;;;;;;;;;;;3.22;61.26;99759.58;107749;1256;123353;-79
2023/03/09 09:14:32;;;;;;;;;;;;;;;3.25;61.23;99760.56;107952;1257;73942;-79
2023/03/09 09:17:00;;;;;;;;;;;;;;;3.22;61.02;99762.52;107707;1257;124207;-79
2023/03/09 09:19:27;;;;;;;;;;;;;;;3.18;61.08;99765.30;107491;1256;71489;-79
2023/03/09 09:21:55;;;;;;;;;;;;;;;3.18;60.91;99763.59;107807;1256;61367;-79
2023/03/09 09:24:22;;;;;;;;;;;;;;;3.14;60.46;99768.29;107862;1256;123530;-80
2023/03/09 09:26:55;;;;;;;;;;;;;;;3.08;59.95;99774.09;108003;1256;74128;-90
2023/03/09 09:29:24;;;;;;;;;;;;;;;3.02;60.03;99773.36;107673;1256;123687;-89
2023/03/09 09:31:51;;;;;;;;;;;;;;;3.05;59.97;99777.48;108174;1256;72712;-79
2023/03/09 09:34:31;;;;;;;;;;;;;;;3.13;59.89;99774.64;108101;1255;123539;-85
2023/03/09 09:37:16;;;;;;;;;;;;;;;3.21;59.58;99780.33;107670;1255;60486;-89
2023/03/09 09:40:04;;;;;;;;;;;;;;;3.40;59.81;99774.11;106706;1261;1300191;-90
2023/03/09 09:42:41;;;;;;;;;;;;;;;3.59;59.69;99778.67;107520;1257;123587;-90
2023/03/09 09:45:24;;;;;;;;;;;;;;;3.68;59.53;99779.70;107493;1256;72290;-90
2023/03/09 09:47:57;;;;;;;;;;;;;;;3.82;59.14;99782.98;107141;1257;123451;-90
2023/03/09 09:50:27;;;;;;;;;;;;;;;3.98;58.77;99787.39;107146;1260;59121;-90
2023/03/09 09:53:12;;;;;;;;;;;;;;;4.03;58.43;99788.23;107300;1256;123595;-90
2023/03/09 09:55:40;;;;;;;;;;;;;;;4.10;58.20;99791.44;107179;1256;64665;-90
2023/03/09 09:58:14;;;;;;;;;;;;;;;4.12;58.08;99800.17;107062;1257;71222;-90
2023/03/09 10:00:46;;;;;;;;;;;;;;;4.03;57.32;99797.25;107162;1255;123114;-89
2023/03/09 10:03:33;;;;;;;;;;;;;;;3.85;56.85;99803.05;107266;1256;61191;-90
2023/03/09 10:06:03;;;;;;;;;;;;;;;3.72;56.70;99802.75;107099;1258;123682;-80
2023/03/09 10:08:36;;;;;;;;;;;;;;;3.62;56.66;99804.28;107471;1257;66775;-80
2023/03/09 10:11:16;;;;;;;;;;;;;;;3.51;56.67;99806.98;107473;1256;123824;-80
2023/03/09 10:13:47;;;;;;;;;;;;;;;3.52;56.75;99810.99;107822;1256;58641;-80
2023/03/09 10:16:18;;;;;;;;;;;;;;;3.65;56.82;99814.11;107641;1261;60502;-80
2023/03/09 10:18:50;;;;;;;;;;;;;;;3.75;56.58;99809.09;107748;1256;123407;-80
2023/03/09 10:21:19;;;;;;;;;;;;;;;3.78;56.21;99809.73;107370;1257;66800;-80
2023/03/09 10:23:46;;;;;;;;;;;;;;;3.85;56.27;99812.06;107166;1256;123955;-80
2023/03/09 10:26:13;;;;;;;;;;;;;;;3.75;55.84;99806.83;107858;1257;60531;-80
2023/03/09 10:28:41;;;;;;;;;;;;;;;3.66;55.76;99806.70;107619;1260;123833;-80
2023/03/09 10:31:11;;;;;;;;;;;;;;;3.71;55.75;99805.64;107803;1255;73639;-80
2023/03/09 10:33:43;;;;;;;;;;;;;;;3.78;55.84;99809.20;107514;1261;66848;-80
2023/03/09 10:36:21;;;;;;;;;;;;;;;3.83;55.42;99811.98;107240;1260;123493;-80
2023/03/09 10:38:56;;;;;;;;;;;;;;;3.82;55.09;99813.33;107097;1263;61437;-90
2023/03/09 10:41:29;;;;;;;;;;;;;;;3.77;54.90;99809.52;107202;1258;123490;-90
2023/03/09 10:43:56;;;;;;;;;;;;;;;3.78;54.72;99809.72;107632;1262;74335;-80
2023/03/09 10:46:24;;;;;;;;;;;;;;;3.82;54.57;99818.17;107608;1256;66861;-80
2023/03/09 10:49:11;;;;;;;;;;;;;;;3.80;54.32;99820.73;107939;1260;71003;-80
2023/03/09 10:51:40;;;;;;;;;;;;;;;3.78;54.02;99817.52;108430;1257;58806;-80
2023/03/09 10:54:14;;;;;;;;;;;;;;;3.83;53.96;99823.46;107826;1255;124297;-80
2023/03/09 10:56:41;;;;;;;;;;;;;;;3.82;53.68;99824.27;107880;1257;74405;-80
2023/03/09 10:59:12;;;;;;;;;;;;;;;3.82;53.60;99826.87;107655;1258;123959;-80
2023/03/09 11:01:39;;;;;;;;;;;;;;;3.82;53.42;99828.09;107711;1257;72542;-80
2023/03/09 11:04:22;;;;;;;;;;;;;;;3.81;53.48;99829.27;107872;1255;60174;-78
2023/03/09 11:06:49;;;;;;;;;;;;;;;3.69;53.12;99827.96;107557;1258;123730;-80
2023/03/09 11:09:35;;;;;;;;;;;;;;;3.62;52.83;99829.59;107623;1262;73660;-80
2023/03/09 11:12:16;;;;;;;;;;;;;;;3.58;52.68;99828.91;107544;1256;123581;-79
2023/03/09 11:14:44;;;;;;;;;;;;;;;3.47;52.58;99828.86;107838;1258;71476;-80
2023/03/09 11:17:23;;;;;;;;;;;;;;;3.36;52.04;99827.39;107963;1257;123803;-80
2023/03/09 11:19:56;;;;;;;;;;;;;;;3.27;52.16;99822.55;108021;1262;60348;-80
2023/03/09 11:22:24;;;;;;;;;;;;;;;3.31;52.19;99828.26;107644;1256;74011;-89
2023/03/09 11:24:51;;;;;;;;;;;;;;;3.33;51.83;99827.45;107486;1259;67753;-89
2023/03/09 11:27:27;;;;;;;;;;;;;;;3.35;51.77;99826.84;107252;1258;71381;-90
2023/03/09 11:30:11;;;;;;;;;;;;;;;3.35;51.60;99837.05;107199;1257;123745;-90
2023/03/09 11:32:46;;;;;;;;;;;;;;;3.36;51.31;99836.41;107524;1259;60086;-89
2023/03/09 11:35:27;;;;;;;;;;;;;;;3.33;50.98;99835.07;107129;1261;123345;-90
2023/03/09 11:37:57;;;;;;;;;;;;;;;3.39;51.00;99834.09;107345;1256;66774;-88
2023/03/09 11:40:25;;;;;;;;;;;;;;;3.48;50.85;99832.88;107607;1260;71467;-88
2023/03/09 11:43:13;;;;;;;;;;;;;;;3.58;51.08;99835.70;107281;1257;59381;-89
2023/03/09 11:45:50;;;;;;;;;;;;;;;3.79;50.67;99832.84;107278;1260;60415;-88
2023/03/09 11:48:23;;;;;;;;;;;;;;;3.90;50.33;99833.42;107272;1255;123428;-79
2023/03/09 11:51:11;;;;;;;;;;;;;;;4.08;50.17;99836.87;108328;1259;67420;-79
2023/03/09 11:54:01;;;;;;;;;;;;;;;4.24;49.77;99838.98;107517;1256;123469;-88
2023/03/09 11:56:44;;;;;;;;;;;;;;;4.35;49.66;99837.98;107255;1255;59289;-88
2023/03/09 11:59:14;;;;;;;;;;;;;;;4.47;49.47;99839.12;107405;1257;123364;-88
2023/03/09 12:02:00;;;;;;;;;;;;;;;4.52;49.02;99838.58;107575;1259;72592;-88
2023/03/09 12:04:36;;;;;;;;;;;;;;;4.52;48.83;99841.16;107447;1258;66360;-89
2023/03/09 12:07:08;;;;;;;;;;;;;;;4.59;48.85;99837.08;107552;1257;72754;-89
2023/03/09 12:12:24;;;;;;;;;;;;;;;4.85;48.34;99837.79;107420;1256;123398;-89
2023/03/09 12:14:52;;;;;;;;;;;;;;;4.84;47.86;99837.59;107335;1256;73879;-89
2023/03/09 12:17:23;;;;;;;;;;;;;;;4.83;47.62;99842.59;107072;1258;123500;-88
2023/03/09 12:19:58;;;;;;;;;;;;;;;4.77;47.41;99839.61;107146;1256;72806;-88
2023/03/09 12:22:30;;;;;;;;;;;;;;;4.72;47.37;99844.11;107503;1259;60515;-88
2023/03/09 12:25:01;;;;;;;;;;;;;;;4.67;47.22;99845.20;107358;1257;60585;-89
2023/03/09 12:27:33;;;;;;;;;;;;;;;4.73;47.31;99846.23;107153;1261;73528;-89
2023/03/09 12:30:00;;;;;;;;;;;;;;;4.86;47.17;99838.17;107100;1258;123382;-89
2023/03/09 12:32:29;;;;;;;;;;;;;;;5.01;47.15;99837.10;107393;1261;70850;-88
2023/03/09 12:35:00;;;;;;;;;;;;;;;5.14;47.19;99835.92;107593;1268;123542;-79
2023/03/09 12:37:27;;;;;;;;;;;;;;;5.17;46.99;99836.05;107502;1259;60313;-79
2023/03/09 12:39:59;;;;;;;;;;;;;;;5.14;46.75;99838.53;107483;1256;73558;-79
2023/03/09 12:42:28;;;;;;;;;;;;;;;5.04;46.31;99845.02;107719;1259;123774;-79
2023/03/09 12:44:55;;;;;;;;;;;;;;;4.94;46.18;99847.45;107768;1256;72390;-79
2023/03/09 12:47:31;;;;;;;;;;;;;;;4.87;46.08;99846.54;108661;1257;123185;-79
2023/03/09 12:49:58;;;;;;;;;;;;;;;4.95;46.14;99846.45;108917;1260;59174;-80
2023/03/09 12:52:44;;;;;;;;;;;;;;;4.95;46.01;99851.30;108788;1256;74067;-80
2023/03/09 12:55:14;;;;;;;;;;;;;;;4.90;45.90;99854.29;108867;1258;67066;-80
2023/03/09 12:57:44;;;;;;;;;;;;;;;4.97;46.04;99856.43;108376;1257;72773;-80
2023/03/09 13:00:21;;;;;;;;;;;;;;;5.02;45.76;99861.46;107258;1263;124207;-80